sensor_id;sensor_type;location;lat;lon;timestamp;P1;durP1;ratioP1;P2;durP2;ratioP2
17566;SDS011;8901;52.088;5.084;2023-04-03T00:05:39;8.60;;;7.90;;
17566;SDS011;8901;52.088;5.084;2023-04-03T00:08:15;7.83;;;7.33;;
17566;SDS011;8901;52.088;5.084;2023-04-03T00:10:57;8.47;;;7.80;;
17566;SDS011;8901;52.088;5.084;2023-04-03T00:13:27;8.20;;;7.60;;
17566;SDS011;8901;52.088;5.084;2023-04-03T00:15:56;8.00;;;7.40;;
17566;SDS011;8901;52.088;5.084;2023-04-03T00:21:35;7.90;;;6.67;;
17566;SDS011;8901;52.088;5.084;2023-04-03T00:24:14;7.60;;;7.07;;
17566;SDS011;8901;52.088;5.084;2023-04-03T00:26:42;7.73;;;7.03;;
17566;SDS011;8901;52.088;5.084;2023-04-03T00:38:05;7.63;;;7.00;;
17566;SDS011;8901;52.088;5.084;2023-04-03T00:40:45;8.10;;;7.30;;
17566;SDS011;8901;52.088;5.084;2023-04-03T00:46:20;7.83;;;7.33;;
17566;SDS011;8901;52.088;5.084;2023-04-03T00:57:50;7.60;;;7.10;;
17566;SDS011;8901;52.088;5.084;2023-04-03T01:03:21;7.57;;;7.00;;
17566;SDS011;8901;52.088;5.084;2023-04-03T01:09:03;7.27;;;6.77;;
17566;SDS011;8901;52.088;5.084;2023-04-03T01:14:36;8.10;;;7.40;;
17566;SDS011;8901;52.088;5.084;2023-04-03T01:17:03;8.00;;;7.50;;
17566;SDS011;8901;52.088;5.084;2023-04-03T01:19:31;7.70;;;7.10;;
17566;SDS011;8901;52.088;5.084;2023-04-03T01:22:03;7.20;;;6.70;;
17566;SDS011;8901;52.088;5.084;2023-04-03T01:24:36;7.13;;;6.63;;
17566;SDS011;8901;52.088;5.084;2023-04-03T01:27:05;7.50;;;7.00;;
17566;SDS011;8901;52.088;5.084;2023-04-03T01:29:33;6.93;;;6.50;;
17566;SDS011;8901;52.088;5.084;2023-04-03T01:32:02;7.30;;;6.70;;
17566;SDS011;8901;52.088;5.084;2023-04-03T01:34:30;7.40;;;6.90;;
17566;SDS011;8901;52.088;5.084;2023-04-03T01:36:57;8.20;;;6.67;;
17566;SDS011;8901;52.088;5.084;2023-04-03T01:39:24;8.17;;;7.63;;
17566;SDS011;8901;52.088;5.084;2023-04-03T01:41:52;7.87;;;7.27;;
17566;SDS011;8901;52.088;5.084;2023-04-03T01:44:19;8.00;;;7.37;;
17566;SDS011;8901;52.088;5.084;2023-04-03T01:46:46;7.80;;;7.30;;
17566;SDS011;8901;52.088;5.084;2023-04-03T01:49:16;8.33;;;7.73;;
17566;SDS011;8901;52.088;5.084;2023-04-03T01:51:44;8.63;;;7.93;;
17566;SDS011;8901;52.088;5.084;2023-04-03T01:54:11;8.30;;;7.60;;
17566;SDS011;8901;52.088;5.084;2023-04-03T01:56:38;8.77;;;8.10;;
17566;SDS011;8901;52.088;5.084;2023-04-03T01:59:05;8.73;;;8.10;;
17566;SDS011;8901;52.088;5.084;2023-04-03T02:01:32;8.53;;;7.83;;
17566;SDS011;8901;52.088;5.084;2023-04-03T02:04:00;7.63;;;7.07;;
17566;SDS011;8901;52.088;5.084;2023-04-03T02:06:28;7.97;;;7.30;;
17566;SDS011;8901;52.088;5.084;2023-04-03T02:08:56;7.67;;;7.00;;
17566;SDS011;8901;52.088;5.084;2023-04-03T02:11:23;7.10;;;6.70;;
17566;SDS011;8901;52.088;5.084;2023-04-03T02:13:50;6.23;;;5.73;;
17566;SDS011;8901;52.088;5.084;2023-04-03T02:16:17;7.27;;;6.23;;
17566;SDS011;8901;52.088;5.084;2023-04-03T02:18:44;6.80;;;6.30;;
17566;SDS011;8901;52.088;5.084;2023-04-03T02:21:11;6.83;;;6.37;;
17566;SDS011;8901;52.088;5.084;2023-04-03T02:23:40;7.27;;;6.67;;
17566;SDS011;8901;52.088;5.084;2023-04-03T02:26:08;7.77;;;7.07;;
17566;SDS011;8901;52.088;5.084;2023-04-03T02:28:36;6.70;;;6.20;;
17566;SDS011;8901;52.088;5.084;2023-04-03T02:31:04;7.30;;;6.70;;
17566;SDS011;8901;52.088;5.084;2023-04-03T02:33:32;7.23;;;6.73;;
17566;SDS011;8901;52.088;5.084;2023-04-03T02:36:01;7.07;;;6.57;;
17566;SDS011;8901;52.088;5.084;2023-04-03T02:38:28;7.33;;;6.77;;
17566;SDS011;8901;52.088;5.084;2023-04-03T02:41:00;7.30;;;6.70;;
17566;SDS011;8901;52.088;5.084;2023-04-03T02:43:28;7.50;;;6.90;;
17566;SDS011;8901;52.088;5.084;2023-04-03T02:45:55;7.23;;;6.63;;
17566;SDS011;8901;52.088;5.084;2023-04-03T02:48:22;7.17;;;6.67;;
17566;SDS011;8901;52.088;5.084;2023-04-03T02:50:50;7.30;;;6.70;;
17566;SDS011;8901;52.088;5.084;2023-04-03T02:53:17;7.30;;;6.70;;
17566;SDS011;8901;52.088;5.084;2023-04-03T02:55:44;6.43;;;5.97;;
17566;SDS011;8901;52.088;5.084;2023-04-03T02:58:13;7.47;;;5.90;;
17566;SDS011;8901;52.088;5.084;2023-04-03T03:00:40;7.10;;;6.40;;
17566;SDS011;8901;52.088;5.084;2023-04-03T03:03:07;6.50;;;6.00;;
17566;SDS011;8901;52.088;5.084;2023-04-03T03:05:34;6.27;;;5.70;;
17566;SDS011;8901;52.088;5.084;2023-04-03T03:08:02;5.77;;;5.27;;
17566;SDS011;8901;52.088;5.084;2023-04-03T03:10:29;6.10;;;5.60;;
17566;SDS011;8901;52.088;5.084;2023-04-03T03:12:56;5.80;;;5.40;;
17566;SDS011;8901;52.088;5.084;2023-04-03T03:15:25;5.60;;;5.10;;
17566;SDS011;8901;52.088;5.084;2023-04-03T03:17:52;5.77;;;5.17;;
17566;SDS011;8901;52.088;5.084;2023-04-03T03:20:19;5.30;;;4.80;;
17566;SDS011;8901;52.088;5.084;2023-04-03T03:22:46;5.53;;;5.03;;
17566;SDS011;8901;52.088;5.084;2023-04-03T03:25:13;5.80;;;4.60;;
17566;SDS011;8901;52.088;5.084;2023-04-03T03:27:41;6.27;;;4.60;;
17566;SDS011;8901;52.088;5.084;2023-04-03T03:30:08;4.77;;;4.37;;
17566;SDS011;8901;52.088;5.084;2023-04-03T03:32:37;5.43;;;4.20;;
17566;SDS011;8901;52.088;5.084;2023-04-03T03:35:04;5.53;;;4.80;;
17566;SDS011;8901;52.088;5.084;2023-04-03T03:37:31;5.10;;;4.70;;
17566;SDS011;8901;52.088;5.084;2023-04-03T03:39:58;5.23;;;4.70;;
17566;SDS011;8901;52.088;5.084;2023-04-03T03:42:25;5.70;;;5.20;;
17566;SDS011;8901;52.088;5.084;2023-04-03T03:44:53;5.50;;;5.03;;
17566;SDS011;8901;52.088;5.084;2023-04-03T03:47:20;6.50;;;5.43;;
17566;SDS011;8901;52.088;5.084;2023-04-03T03:49:48;5.53;;;5.00;;
17566;SDS011;8901;52.088;5.084;2023-04-03T03:52:15;5.47;;;5.03;;
17566;SDS011;8901;52.088;5.084;2023-04-03T03:54:43;6.00;;;5.40;;
17566;SDS011;8901;52.088;5.084;2023-04-03T03:57:10;9.83;;;5.43;;
17566;SDS011;8901;52.088;5.084;2023-04-03T04:02:10;5.63;;;5.07;;
17566;SDS011;8901;52.088;5.084;2023-04-03T04:04:38;5.97;;;5.37;;
17566;SDS011;8901;52.088;5.084;2023-04-03T04:07:06;5.47;;;5.07;;
17566;SDS011;8901;52.088;5.084;2023-04-03T04:09:33;6.40;;;5.87;;
17566;SDS011;8901;52.088;5.084;2023-04-03T04:12:00;7.90;;;6.60;;
17566;SDS011;8901;52.088;5.084;2023-04-03T04:14:28;6.43;;;5.90;;
17566;SDS011;8901;52.088;5.084;2023-04-03T04:16:55;6.80;;;6.30;;
17566;SDS011;8901;52.088;5.084;2023-04-03T04:19:22;7.17;;;6.60;;
17566;SDS011;8901;52.088;5.084;2023-04-03T04:21:49;7.23;;;6.30;;
17566;SDS011;8901;52.088;5.084;2023-04-03T04:24:18;7.93;;;7.13;;
17566;SDS011;8901;52.088;5.084;2023-04-03T04:26:45;8.90;;;7.80;;
17566;SDS011;8901;52.088;5.084;2023-04-03T04:29:12;7.90;;;7.30;;
17566;SDS011;8901;52.088;5.084;2023-04-03T04:31:39;7.73;;;7.13;;
17566;SDS011;8901;52.088;5.084;2023-04-03T04:34:06;7.27;;;6.73;;
17566;SDS011;8901;52.088;5.084;2023-04-03T04:36:33;8.07;;;7.40;;
17566;SDS011;8901;52.088;5.084;2023-04-03T04:39:00;7.20;;;6.70;;
17566;SDS011;8901;52.088;5.084;2023-04-03T04:41:29;9.33;;;7.37;;
17566;SDS011;8901;52.088;5.084;2023-04-03T04:43:57;10.27;;;8.33;;
17566;SDS011;8901;52.088;5.084;2023-04-03T04:46:24;7.30;;;6.70;;
17566;SDS011;8901;52.088;5.084;2023-04-03T04:48:51;7.37;;;6.77;;
17566;SDS011;8901;52.088;5.084;2023-04-03T04:51:18;8.23;;;7.47;;
17566;SDS011;8901;52.088;5.084;2023-04-03T04:53:46;7.80;;;6.30;;
17566;SDS011;8901;52.088;5.084;2023-04-03T04:56:13;7.63;;;6.87;;
17566;SDS011;8901;52.088;5.084;2023-04-03T04:58:41;8.27;;;7.40;;
17566;SDS011;8901;52.088;5.084;2023-04-03T05:01:09;7.80;;;7.07;;
17566;SDS011;8901;52.088;5.084;2023-04-03T05:03:36;7.47;;;6.97;;
17566;SDS011;8901;52.088;5.084;2023-04-03T05:06:03;8.60;;;6.80;;
17566;SDS011;8901;52.088;5.084;2023-04-03T05:14:39;7.07;;;6.47;;
17566;SDS011;8901;52.088;5.084;2023-04-03T05:17:06;7.37;;;6.70;;
17566;SDS011;8901;52.088;5.084;2023-04-03T05:19:33;7.30;;;6.60;;
17566;SDS011;8901;52.088;5.084;2023-04-03T05:22:01;7.13;;;6.53;;
17566;SDS011;8901;52.088;5.084;2023-04-03T05:24:28;10.63;;;6.93;;
17566;SDS011;8901;52.088;5.084;2023-04-03T05:26:55;8.20;;;6.23;;
17566;SDS011;8901;52.088;5.084;2023-04-03T05:29:22;6.30;;;5.70;;
17566;SDS011;8901;52.088;5.084;2023-04-03T05:31:51;8.63;;;4.80;;
17566;SDS011;8901;52.088;5.084;2023-04-03T05:34:18;5.97;;;4.60;;
17566;SDS011;8901;52.088;5.084;2023-04-03T05:36:45;7.10;;;4.90;;
17566;SDS011;8901;52.088;5.084;2023-04-03T05:39:12;8.63;;;5.10;;
17566;SDS011;8901;52.088;5.084;2023-04-03T05:41:39;8.07;;;5.90;;
17566;SDS011;8901;52.088;5.084;2023-04-03T05:44:07;10.07;;;5.00;;
17566;SDS011;8901;52.088;5.084;2023-04-03T05:46:34;5.03;;;4.53;;
17566;SDS011;8901;52.088;5.084;2023-04-03T05:49:02;6.93;;;4.63;;
17566;SDS011;8901;52.088;5.084;2023-04-03T05:51:30;9.23;;;5.27;;
17566;SDS011;8901;52.088;5.084;2023-04-03T05:54:01;5.63;;;4.90;;
17566;SDS011;8901;52.088;5.084;2023-04-03T05:56:29;5.50;;;4.87;;
17566;SDS011;8901;52.088;5.084;2023-04-03T05:58:56;7.13;;;5.33;;
17566;SDS011;8901;52.088;5.084;2023-04-03T06:01:23;10.90;;;5.60;;
17566;SDS011;8901;52.088;5.084;2023-04-03T06:03:51;6.40;;;4.67;;
17566;SDS011;8901;52.088;5.084;2023-04-03T06:06:20;6.00;;;5.30;;
17566;SDS011;8901;52.088;5.084;2023-04-03T06:08:47;8.10;;;5.00;;
17566;SDS011;8901;52.088;5.084;2023-04-03T06:11:15;6.03;;;5.30;;
17566;SDS011;8901;52.088;5.084;2023-04-03T06:13:42;4.90;;;4.47;;
17566;SDS011;8901;52.088;5.084;2023-04-03T06:16:11;9.33;;;5.40;;
17566;SDS011;8901;52.088;5.084;2023-04-03T06:18:40;9.53;;;5.30;;
17566;SDS011;8901;52.088;5.084;2023-04-03T06:21:07;9.80;;;5.50;;
17566;SDS011;8901;52.088;5.084;2023-04-03T06:23:36;6.73;;;5.50;;
17566;SDS011;8901;52.088;5.084;2023-04-03T06:26:03;7.07;;;5.07;;
17566;SDS011;8901;52.088;5.084;2023-04-03T06:28:30;6.13;;;5.20;;
17566;SDS011;8901;52.088;5.084;2023-04-03T06:30:57;8.97;;;4.50;;
17566;SDS011;8901;52.088;5.084;2023-04-03T06:33:24;8.50;;;5.20;;
17566;SDS011;8901;52.088;5.084;2023-04-03T06:35:55;9.03;;;4.77;;
17566;SDS011;8901;52.088;5.084;2023-04-03T06:38:22;6.63;;;4.90;;
17566;SDS011;8901;52.088;5.084;2023-04-03T06:40:51;9.20;;;5.70;;
17566;SDS011;8901;52.088;5.084;2023-04-03T06:43:19;6.63;;;5.40;;
17566;SDS011;8901;52.088;5.084;2023-04-03T06:45:46;8.70;;;5.20;;
17566;SDS011;8901;52.088;5.084;2023-04-03T06:48:13;7.93;;;5.07;;
17566;SDS011;8901;52.088;5.084;2023-04-03T06:50:40;7.40;;;5.33;;
17566;SDS011;8901;52.088;5.084;2023-04-03T06:53:08;7.10;;;5.67;;
17566;SDS011;8901;52.088;5.084;2023-04-03T06:55:35;8.90;;;5.70;;
17566;SDS011;8901;52.088;5.084;2023-04-03T06:58:04;6.33;;;5.80;;
17566;SDS011;8901;52.088;5.084;2023-04-03T07:00:31;10.13;;;5.80;;
17566;SDS011;8901;52.088;5.084;2023-04-03T07:02:58;6.47;;;5.87;;
17566;SDS011;8901;52.088;5.084;2023-04-03T07:05:25;10.17;;;7.30;;
17566;SDS011;8901;52.088;5.084;2023-04-03T07:07:53;7.77;;;7.07;;
17566;SDS011;8901;52.088;5.084;2023-04-03T07:10:20;8.47;;;7.77;;
17566;SDS011;8901;52.088;5.084;2023-04-03T07:12:48;8.60;;;7.80;;
17566;SDS011;8901;52.088;5.084;2023-04-03T07:15:16;8.60;;;7.90;;
17566;SDS011;8901;52.088;5.084;2023-04-03T07:20:29;11.67;;;8.83;;
17566;SDS011;8901;52.088;5.084;2023-04-03T07:22:57;10.17;;;9.17;;
17566;SDS011;8901;52.088;5.084;2023-04-03T07:25:24;10.30;;;9.40;;
17566;SDS011;8901;52.088;5.084;2023-04-03T07:27:52;10.80;;;10.00;;
17566;SDS011;8901;52.088;5.084;2023-04-03T07:30:21;10.80;;;10.00;;
17566;SDS011;8901;52.088;5.084;2023-04-03T07:32:49;8.50;;;7.80;;
17566;SDS011;8901;52.088;5.084;2023-04-03T07:35:16;10.03;;;9.17;;
17566;SDS011;8901;52.088;5.084;2023-04-03T07:37:44;9.60;;;8.90;;
17566;SDS011;8901;52.088;5.084;2023-04-03T07:40:11;11.40;;;10.47;;
17566;SDS011;8901;52.088;5.084;2023-04-03T07:42:38;10.83;;;9.80;;
17566;SDS011;8901;52.088;5.084;2023-04-03T07:45:07;10.83;;;10.13;;
17566;SDS011;8901;52.088;5.084;2023-04-03T07:47:36;12.17;;;11.17;;
17566;SDS011;8901;52.088;5.084;2023-04-03T07:50:03;12.00;;;10.93;;
17566;SDS011;8901;52.088;5.084;2023-04-03T07:52:30;12.87;;;11.97;;
17566;SDS011;8901;52.088;5.084;2023-04-03T07:54:57;11.97;;;11.00;;
17566;SDS011;8901;52.088;5.084;2023-04-03T07:57:25;12.30;;;11.50;;
17566;SDS011;8901;52.088;5.084;2023-04-03T07:59:52;13.50;;;12.63;;
17566;SDS011;8901;52.088;5.084;2023-04-03T08:02:19;14.03;;;13.00;;
17566;SDS011;8901;52.088;5.084;2023-04-03T08:04:48;12.57;;;11.77;;
17566;SDS011;8901;52.088;5.084;2023-04-03T08:07:15;11.97;;;10.87;;
17566;SDS011;8901;52.088;5.084;2023-04-03T08:09:42;12.33;;;11.23;;
17566;SDS011;8901;52.088;5.084;2023-04-03T08:12:09;13.70;;;12.60;;
17566;SDS011;8901;52.088;5.084;2023-04-03T08:14:37;10.67;;;9.77;;
17566;SDS011;8901;52.088;5.084;2023-04-03T08:17:04;10.20;;;9.30;;
17566;SDS011;8901;52.088;5.084;2023-04-03T08:19:34;14.87;;;13.87;;
17566;SDS011;8901;52.088;5.084;2023-04-03T08:22:03;19.00;;;17.50;;
17566;SDS011;8901;52.088;5.084;2023-04-03T08:24:31;15.57;;;14.57;;
17566;SDS011;8901;52.088;5.084;2023-04-03T08:26:58;13.13;;;12.23;;
17566;SDS011;8901;52.088;5.084;2023-04-03T08:29:25;13.53;;;12.50;;
17566;SDS011;8901;52.088;5.084;2023-04-03T08:31:53;14.23;;;13.17;;
17566;SDS011;8901;52.088;5.084;2023-04-03T08:34:20;15.83;;;14.83;;
17566;SDS011;8901;52.088;5.084;2023-04-03T08:36:47;17.83;;;16.57;;
17566;SDS011;8901;52.088;5.084;2023-04-03T08:39:16;20.40;;;19.20;;
17566;SDS011;8901;52.088;5.084;2023-04-03T08:41:43;20.63;;;19.37;;
17566;SDS011;8901;52.088;5.084;2023-04-03T08:44:16;21.63;;;20.23;;
17566;SDS011;8901;52.088;5.084;2023-04-03T08:46:52;18.90;;;17.80;;
17566;SDS011;8901;52.088;5.084;2023-04-03T08:49:24;22.27;;;20.70;;
17566;SDS011;8901;52.088;5.084;2023-04-03T08:51:53;21.03;;;19.63;;
17566;SDS011;8901;52.088;5.084;2023-04-03T08:54:25;20.53;;;19.10;;
17566;SDS011;8901;52.088;5.084;2023-04-03T08:56:55;20.90;;;19.67;;
17566;SDS011;8901;52.088;5.084;2023-04-03T08:59:24;21.97;;;20.57;;
17566;SDS011;8901;52.088;5.084;2023-04-03T09:01:53;22.00;;;20.50;;
17566;SDS011;8901;52.088;5.084;2023-04-03T09:04:20;21.97;;;20.50;;
17566;SDS011;8901;52.088;5.084;2023-04-03T09:06:49;21.80;;;20.40;;
17566;SDS011;8901;52.088;5.084;2023-04-03T09:09:21;21.77;;;20.47;;
17566;SDS011;8901;52.088;5.084;2023-04-03T09:11:55;23.37;;;21.87;;
17566;SDS011;8901;52.088;5.084;2023-04-03T09:14:26;22.40;;;21.10;;
17566;SDS011;8901;52.088;5.084;2023-04-03T09:16:58;22.37;;;20.93;;
17566;SDS011;8901;52.088;5.084;2023-04-03T09:19:28;22.63;;;21.03;;
17566;SDS011;8901;52.088;5.084;2023-04-03T09:21:58;22.13;;;20.83;;
17566;SDS011;8901;52.088;5.084;2023-04-03T09:24:28;22.20;;;20.90;;
17566;SDS011;8901;52.088;5.084;2023-04-03T09:27:00;23.03;;;21.53;;
17566;SDS011;8901;52.088;5.084;2023-04-03T09:29:30;21.53;;;20.23;;
17566;SDS011;8901;52.088;5.084;2023-04-03T09:31:59;22.40;;;21.00;;
17566;SDS011;8901;52.088;5.084;2023-04-03T09:34:27;22.33;;;21.03;;
17566;SDS011;8901;52.088;5.084;2023-04-03T09:36:56;23.20;;;21.70;;
17566;SDS011;8901;52.088;5.084;2023-04-03T09:39:25;22.53;;;21.20;;
17566;SDS011;8901;52.088;5.084;2023-04-03T09:41:58;22.90;;;21.60;;
17566;SDS011;8901;52.088;5.084;2023-04-03T09:44:28;23.03;;;21.73;;
17566;SDS011;8901;52.088;5.084;2023-04-03T09:46:56;24.50;;;23.00;;
17566;SDS011;8901;52.088;5.084;2023-04-03T09:49:24;24.07;;;22.57;;
17566;SDS011;8901;52.088;5.084;2023-04-03T09:51:51;23.63;;;22.20;;
17566;SDS011;8901;52.088;5.084;2023-04-03T09:54:32;23.97;;;22.37;;
17566;SDS011;8901;52.088;5.084;2023-04-03T09:59:34;23.70;;;22.20;;
17566;SDS011;8901;52.088;5.084;2023-04-03T10:02:02;23.97;;;22.47;;
17566;SDS011;8901;52.088;5.084;2023-04-03T10:04:37;22.87;;;21.47;;
17566;SDS011;8901;52.088;5.084;2023-04-03T10:07:30;23.20;;;21.80;;
17566;SDS011;8901;52.088;5.084;2023-04-03T10:09:56;23.07;;;21.67;;
17566;SDS011;8901;52.088;5.084;2023-04-03T10:12:23;22.20;;;20.90;;
17566;SDS011;8901;52.088;5.084;2023-04-03T10:14:55;22.70;;;21.10;;
17566;SDS011;8901;52.088;5.084;2023-04-03T10:17:25;23.00;;;21.60;;
17566;SDS011;8901;52.088;5.084;2023-04-03T10:19:57;22.97;;;21.67;;
17566;SDS011;8901;52.088;5.084;2023-04-03T10:22:30;22.00;;;20.60;;
17566;SDS011;8901;52.088;5.084;2023-04-03T10:25:02;22.23;;;20.93;;
17566;SDS011;8901;52.088;5.084;2023-04-03T10:27:32;22.20;;;20.80;;
17566;SDS011;8901;52.088;5.084;2023-04-03T10:30:08;21.80;;;20.50;;
17566;SDS011;8901;52.088;5.084;2023-04-03T10:32:44;21.70;;;20.40;;
17566;SDS011;8901;52.088;5.084;2023-04-03T10:35:15;21.23;;;19.93;;
17566;SDS011;8901;52.088;5.084;2023-04-03T10:37:47;21.83;;;20.60;;
17566;SDS011;8901;52.088;5.084;2023-04-03T10:40:21;21.63;;;20.43;;
17566;SDS011;8901;52.088;5.084;2023-04-03T10:42:50;20.50;;;19.30;;
17566;SDS011;8901;52.088;5.084;2023-04-03T10:45:23;20.43;;;19.13;;
17566;SDS011;8901;52.088;5.084;2023-04-03T10:47:54;21.37;;;20.17;;
17566;SDS011;8901;52.088;5.084;2023-04-03T10:50:26;20.73;;;19.53;;
17566;SDS011;8901;52.088;5.084;2023-04-03T10:52:57;20.40;;;19.20;;
17566;SDS011;8901;52.088;5.084;2023-04-03T10:55:31;19.77;;;18.63;;
17566;SDS011;8901;52.088;5.084;2023-04-03T10:58:00;19.60;;;18.50;;
17566;SDS011;8901;52.088;5.084;2023-04-03T11:00:33;25.13;;;23.37;;
17566;SDS011;8901;52.088;5.084;2023-04-03T11:03:03;20.43;;;19.13;;
17566;SDS011;8901;52.088;5.084;2023-04-03T11:05:34;21.37;;;20.07;;
17566;SDS011;8901;52.088;5.084;2023-04-03T11:08:03;22.20;;;20.70;;
17566;SDS011;8901;52.088;5.084;2023-04-03T11:10:32;21.27;;;20.07;;
17566;SDS011;8901;52.088;5.084;2023-04-03T11:13:06;20.60;;;19.37;;
17566;SDS011;8901;52.088;5.084;2023-04-03T11:15:36;21.10;;;19.90;;
17566;SDS011;8901;52.088;5.084;2023-04-03T11:18:05;20.17;;;18.97;;
17566;SDS011;8901;52.088;5.084;2023-04-03T11:20:34;21.20;;;20.00;;
17566;SDS011;8901;52.088;5.084;2023-04-03T11:23:03;21.63;;;20.20;;
17566;SDS011;8901;52.088;5.084;2023-04-03T11:25:32;19.30;;;18.20;;
17566;SDS011;8901;52.088;5.084;2023-04-03T11:28:11;21.90;;;20.70;;
17566;SDS011;8901;52.088;5.084;2023-04-03T11:30:42;22.40;;;21.00;;
17566;SDS011;8901;52.088;5.084;2023-04-03T11:33:17;22.13;;;20.77;;
17566;SDS011;8901;52.088;5.084;2023-04-03T11:35:48;21.17;;;19.90;;
17566;SDS011;8901;52.088;5.084;2023-04-03T11:38:21;22.10;;;20.87;;
17566;SDS011;8901;52.088;5.084;2023-04-03T11:40:51;23.13;;;21.63;;
17566;SDS011;8901;52.088;5.084;2023-04-03T11:43:21;22.13;;;20.83;;
17566;SDS011;8901;52.088;5.084;2023-04-03T11:45:52;23.33;;;21.53;;
17566;SDS011;8901;52.088;5.084;2023-04-03T11:53:49;21.80;;;20.60;;
17566;SDS011;8901;52.088;5.084;2023-04-03T11:56:27;21.77;;;20.40;;
17566;SDS011;8901;52.088;5.084;2023-04-03T11:59:15;23.00;;;21.50;;
17566;SDS011;8901;52.088;5.084;2023-04-03T12:01:46;22.40;;;21.10;;
17566;SDS011;8901;52.088;5.084;2023-04-03T12:04:15;22.50;;;21.13;;
17566;SDS011;8901;52.088;5.084;2023-04-03T12:09:32;21.97;;;20.67;;
17566;SDS011;8901;52.088;5.084;2023-04-03T12:12:01;22.27;;;20.67;;
17566;SDS011;8901;52.088;5.084;2023-04-03T12:14:34;22.00;;;20.70;;
17566;SDS011;8901;52.088;5.084;2023-04-03T12:17:11;21.90;;;20.70;;
17566;SDS011;8901;52.088;5.084;2023-04-03T12:19:47;22.07;;;20.53;;
17566;SDS011;8901;52.088;5.084;2023-04-03T12:22:16;20.40;;;19.20;;
17566;SDS011;8901;52.088;5.084;2023-04-03T12:24:47;21.70;;;20.40;;
17566;SDS011;8901;52.088;5.084;2023-04-03T12:30:11;21.50;;;20.30;;
17566;SDS011;8901;52.088;5.084;2023-04-03T12:32:44;21.47;;;20.27;;
17566;SDS011;8901;52.088;5.084;2023-04-03T12:47:25;22.00;;;20.60;;
17566;SDS011;8901;52.088;5.084;2023-04-03T13:02:24;22.17;;;20.87;;
17566;SDS011;8901;52.088;5.084;2023-04-03T13:07:57;22.83;;;21.43;;
17566;SDS011;8901;52.088;5.084;2023-04-03T13:16:35;23.03;;;21.53;;
17566;SDS011;8901;52.088;5.084;2023-04-03T13:19:22;22.57;;;21.17;;
17566;SDS011;8901;52.088;5.084;2023-04-03T13:21:49;21.40;;;20.20;;
17566;SDS011;8901;52.088;5.084;2023-04-03T13:27:22;21.73;;;20.53;;
17566;SDS011;8901;52.088;5.084;2023-04-03T13:32:54;22.30;;;21.00;;
17566;SDS011;8901;52.088;5.084;2023-04-03T13:38:27;21.90;;;20.67;;
17566;SDS011;8901;52.088;5.084;2023-04-03T13:56:18;21.83;;;20.53;;
17566;SDS011;8901;52.088;5.084;2023-04-03T14:01:51;22.43;;;21.13;;
17566;SDS011;8901;52.088;5.084;2023-04-03T14:07:15;22.77;;;21.37;;
17566;SDS011;8901;52.088;5.084;2023-04-03T14:12:49;22.37;;;20.97;;
17566;SDS011;8901;52.088;5.084;2023-04-03T14:29:33;21.83;;;20.50;;
17566;SDS011;8901;52.088;5.084;2023-04-03T14:32:19;22.27;;;20.93;;
17566;SDS011;8901;52.088;5.084;2023-04-03T14:34:54;23.30;;;21.37;;
17566;SDS011;8901;52.088;5.084;2023-04-03T14:37:40;20.87;;;19.57;;
17566;SDS011;8901;52.088;5.084;2023-04-03T14:48:43;21.07;;;19.87;;
17566;SDS011;8901;52.088;5.084;2023-04-03T14:54:22;21.60;;;20.30;;
17566;SDS011;8901;52.088;5.084;2023-04-03T14:56:55;21.27;;;20.00;;
17566;SDS011;8901;52.088;5.084;2023-04-03T14:59:32;21.80;;;20.43;;
17566;SDS011;8901;52.088;5.084;2023-04-03T15:07:59;21.40;;;20.20;;
17566;SDS011;8901;52.088;5.084;2023-04-03T15:16:18;21.90;;;20.60;;
17566;SDS011;8901;52.088;5.084;2023-04-03T15:24:37;21.60;;;20.23;;
17566;SDS011;8901;52.088;5.084;2023-04-03T15:39:26;22.27;;;20.97;;
17566;SDS011;8901;52.088;5.084;2023-04-03T15:45:07;21.30;;;20.10;;
17566;SDS011;8901;52.088;5.084;2023-04-03T15:50:52;21.30;;;19.90;;
17566;SDS011;8901;52.088;5.084;2023-04-03T15:59:05;20.47;;;19.13;;
17566;SDS011;8901;52.088;5.084;2023-04-03T16:01:46;21.27;;;20.00;;
17566;SDS011;8901;52.088;5.084;2023-04-03T16:07:16;21.80;;;20.30;;
17566;SDS011;8901;52.088;5.084;2023-04-03T16:09:45;21.67;;;20.30;;
17566;SDS011;8901;52.088;5.084;2023-04-03T16:15:15;22.00;;;20.53;;
17566;SDS011;8901;52.088;5.084;2023-04-03T16:17:55;23.10;;;21.60;;
17566;SDS011;8901;52.088;5.084;2023-04-03T16:26:07;22.27;;;20.80;;
17566;SDS011;8901;52.088;5.084;2023-04-03T16:28:41;22.97;;;21.47;;
17566;SDS011;8901;52.088;5.084;2023-04-03T16:40:05;17.60;;;16.60;;
17566;SDS011;8901;52.088;5.084;2023-04-03T16:45:43;18.40;;;17.20;;
17566;SDS011;8901;52.088;5.084;2023-04-03T16:54:01;17.70;;;16.57;;
17566;SDS011;8901;52.088;5.084;2023-04-03T16:59:33;17.23;;;15.90;;
17566;SDS011;8901;52.088;5.084;2023-04-03T17:02:02;17.57;;;16.37;;
17566;SDS011;8901;52.088;5.084;2023-04-03T17:07:33;18.07;;;16.57;;
17566;SDS011;8901;52.088;5.084;2023-04-03T17:13:03;16.97;;;15.47;;
17566;SDS011;8901;52.088;5.084;2023-04-03T17:18:36;17.83;;;16.53;;
17566;SDS011;8901;52.088;5.084;2023-04-03T17:23:53;20.13;;;17.97;;
17566;SDS011;8901;52.088;5.084;2023-04-03T17:26:41;19.37;;;17.70;;
17566;SDS011;8901;52.088;5.084;2023-04-03T17:32:11;17.37;;;16.27;;
17566;SDS011;8901;52.088;5.084;2023-04-03T17:40:26;16.40;;;14.77;;
17566;SDS011;8901;52.088;5.084;2023-04-03T17:45:51;17.70;;;16.40;;
17566;SDS011;8901;52.088;5.084;2023-04-03T17:48:19;17.53;;;16.30;;
17566;SDS011;8901;52.088;5.084;2023-04-03T18:02:37;18.30;;;17.00;;
17566;SDS011;8901;52.088;5.084;2023-04-03T18:08:09;24.13;;;21.97;;
17566;SDS011;8901;52.088;5.084;2023-04-03T18:13:40;16.53;;;15.27;;
17566;SDS011;8901;52.088;5.084;2023-04-03T18:16:13;17.93;;;16.77;;
17566;SDS011;8901;52.088;5.084;2023-04-03T18:18:49;17.03;;;16.03;;
17566;SDS011;8901;52.088;5.084;2023-04-03T18:24:25;16.53;;;15.50;;
17566;SDS011;8901;52.088;5.084;2023-04-03T18:26:54;17.00;;;15.90;;
17566;SDS011;8901;52.088;5.084;2023-04-03T18:29:38;16.40;;;15.30;;
17566;SDS011;8901;52.088;5.084;2023-04-03T18:32:07;16.30;;;15.10;;
17566;SDS011;8901;52.088;5.084;2023-04-03T18:34:37;16.37;;;15.20;;
17566;SDS011;8901;52.088;5.084;2023-04-03T18:37:04;16.73;;;15.53;;
17566;SDS011;8901;52.088;5.084;2023-04-03T18:39:32;16.23;;;15.20;;
17566;SDS011;8901;52.088;5.084;2023-04-03T18:42:02;16.87;;;15.67;;
17566;SDS011;8901;52.088;5.084;2023-04-03T18:44:30;16.07;;;14.90;;
17566;SDS011;8901;52.088;5.084;2023-04-03T18:52:31;16.87;;;15.67;;
17566;SDS011;8901;52.088;5.084;2023-04-03T18:54:58;17.20;;;16.00;;
17566;SDS011;8901;52.088;5.084;2023-04-03T18:57:25;17.60;;;16.30;;
17566;SDS011;8901;52.088;5.084;2023-04-03T18:59:52;16.60;;;15.60;;
17566;SDS011;8901;52.088;5.084;2023-04-03T19:02:19;17.30;;;16.20;;
17566;SDS011;8901;52.088;5.084;2023-04-03T19:04:49;17.17;;;15.87;;
17566;SDS011;8901;52.088;5.084;2023-04-03T19:07:17;17.37;;;16.27;;
17566;SDS011;8901;52.088;5.084;2023-04-03T19:09:46;17.13;;;16.07;;
17566;SDS011;8901;52.088;5.084;2023-04-03T19:12:13;17.13;;;16.03;;
17566;SDS011;8901;52.088;5.084;2023-04-03T19:14:40;17.47;;;16.27;;
17566;SDS011;8901;52.088;5.084;2023-04-03T19:17:07;17.70;;;16.50;;
17566;SDS011;8901;52.088;5.084;2023-04-03T19:19:34;16.27;;;15.23;;
17566;SDS011;8901;52.088;5.084;2023-04-03T19:22:01;17.03;;;15.93;;
17566;SDS011;8901;52.088;5.084;2023-04-03T19:27:33;17.40;;;16.30;;
17566;SDS011;8901;52.088;5.084;2023-04-03T19:30:00;17.90;;;16.60;;
17566;SDS011;8901;52.088;5.084;2023-04-03T19:32:28;16.53;;;15.40;;
17566;SDS011;8901;52.088;5.084;2023-04-03T19:34:55;17.63;;;16.50;;
17566;SDS011;8901;52.088;5.084;2023-04-03T19:37:23;17.93;;;16.73;;
17566;SDS011;8901;52.088;5.084;2023-04-03T19:39:50;18.73;;;17.17;;
17566;SDS011;8901;52.088;5.084;2023-04-03T19:42:18;17.70;;;16.30;;